createdAt,value
2018-03-17T00:02:14.905Z,14.30
2018-03-17T00:04:41.262Z,13.70
2018-03-17T00:07:07.702Z,16.30
2018-03-17T00:09:34.057Z,14.80
2018-03-17T00:12:00.422Z,17.03
2018-03-17T00:14:26.790Z,15.90
2018-03-17T00:16:53.206Z,15.87
2018-03-17T00:19:19.594Z,13.00
2018-03-17T00:21:45.942Z,15.17
2018-03-17T00:24:12.282Z,21.83
2018-03-17T00:26:38.647Z,28.70
2018-03-17T00:29:04.978Z,37.50
2018-03-17T00:31:31.338Z,42.10
2018-03-17T00:33:57.702Z,37.93
2018-03-17T00:36:24.029Z,34.57
2018-03-17T00:38:50.370Z,32.63
2018-03-17T00:41:16.785Z,25.77
2018-03-17T00:43:43.158Z,24.77
2018-03-17T00:46:12.472Z,19.27
2018-03-17T00:48:38.979Z,20.33
2018-03-17T00:51:05.359Z,21.30
2018-03-17T00:53:31.742Z,16.03
2018-03-17T00:55:58.148Z,14.93
2018-03-17T00:58:24.550Z,19.77
2018-03-17T01:00:50.998Z,17.67
2018-03-17T01:03:17.426Z,16.70
2018-03-17T01:05:43.858Z,18.90
2018-03-17T01:08:10.278Z,18.07
2018-03-17T01:10:36.658Z,20.03
2018-03-17T01:13:03.074Z,20.00
2018-03-17T01:15:29.449Z,16.13
2018-03-17T01:17:55.966Z,14.77
2018-03-17T01:20:22.390Z,15.43
2018-03-17T01:22:48.833Z,12.07
2018-03-17T01:25:15.198Z,12.33
2018-03-17T01:27:41.576Z,11.07
2018-03-17T01:30:07.954Z,11.17
2018-03-17T01:32:34.443Z,12.07
2018-03-17T01:35:00.794Z,13.70
2018-03-17T01:37:27.145Z,12.17
2018-03-17T01:39:53.751Z,11.27
2018-03-17T01:42:20.353Z,13.80
2018-03-17T01:44:46.697Z,13.20
2018-03-17T01:47:13.078Z,11.27
2018-03-17T01:49:39.454Z,12.70
2018-03-17T01:52:05.797Z,11.13
2018-03-17T01:54:32.297Z,11.03
2018-03-17T01:56:58.750Z,14.07
2018-03-17T01:59:25.292Z,17.97
2018-03-17T02:01:51.705Z,15.47
2018-03-17T02:04:18.106Z,12.63
2018-03-17T02:06:44.465Z,13.90
2018-03-17T02:09:10.929Z,10.57
2018-03-17T02:11:37.305Z,10.57
2018-03-17T02:14:03.737Z,15.27
2018-03-17T02:16:30.122Z,14.97
2018-03-17T02:18:56.517Z,12.93
2018-03-17T02:21:22.906Z,17.27
2018-03-17T02:23:49.325Z,13.40
2018-03-17T02:26:15.697Z,11.30
2018-03-17T02:28:42.117Z,10.63
2018-03-17T02:31:08.484Z,11.60
2018-03-17T02:33:34.922Z,12.47
2018-03-17T02:36:01.263Z,12.33
2018-03-17T02:38:27.662Z,13.67
2018-03-17T02:40:54.046Z,12.77
2018-03-17T02:43:20.409Z,14.60
2018-03-17T02:45:46.796Z,13.10
2018-03-17T02:48:13.222Z,14.57
2018-03-17T02:50:39.574Z,13.73
2018-03-17T02:53:05.915Z,11.43
2018-03-17T02:55:32.313Z,10.10
2018-03-17T02:57:58.669Z,11.33
2018-03-17T03:00:25.059Z,12.40
2018-03-17T03:02:51.418Z,13.93
2018-03-17T03:05:17.790Z,14.40
2018-03-17T03:07:44.130Z,15.13
2018-03-17T03:10:10.506Z,15.23
2018-03-17T03:12:36.878Z,11.03
2018-03-17T03:15:03.294Z,9.63
2018-03-17T03:17:29.671Z,11.93
2018-03-17T03:19:56.163Z,9.80
2018-03-17T03:22:22.530Z,10.83
2018-03-17T03:24:48.881Z,14.20
2018-03-17T03:27:15.278Z,15.70
2018-03-17T03:29:41.646Z,13.43
2018-03-17T03:32:08.002Z,11.10
2018-03-17T03:34:34.409Z,12.37
2018-03-17T03:37:00.768Z,12.00
2018-03-17T03:39:27.201Z,11.43
2018-03-17T03:41:53.583Z,9.27
2018-03-17T03:44:20.083Z,11.30
2018-03-17T03:46:46.520Z,10.57
2018-03-17T03:49:12.934Z,12.37
2018-03-17T03:51:39.445Z,11.73
2018-03-17T03:54:05.857Z,9.43
2018-03-17T03:56:32.261Z,9.63
2018-03-17T03:58:58.654Z,7.80
2018-03-17T04:01:25.078Z,11.00
2018-03-17T04:03:51.509Z,10.33
2018-03-17T04:06:18.049Z,9.23
2018-03-17T04:08:44.462Z,13.83
2018-03-17T04:11:10.873Z,15.60
2018-03-17T04:13:37.309Z,16.70
2018-03-17T04:16:03.742Z,14.97
2018-03-17T04:18:30.166Z,13.97
2018-03-17T04:20:56.582Z,14.20
2018-03-17T04:23:23.018Z,13.33
2018-03-17T04:25:49.381Z,12.10
2018-03-17T04:28:15.766Z,13.80
2018-03-17T04:30:42.145Z,15.47
2018-03-17T04:33:08.494Z,13.73
2018-03-17T04:35:34.857Z,14.33
2018-03-17T04:38:01.262Z,15.47
2018-03-17T04:40:27.709Z,14.50
2018-03-17T04:42:54.117Z,14.90
2018-03-17T04:45:20.520Z,18.90
2018-03-17T04:47:46.873Z,16.57
2018-03-17T04:50:13.223Z,22.17
2018-03-17T04:52:39.593Z,18.10
2018-03-17T04:55:05.957Z,17.33
2018-03-17T04:57:32.405Z,14.10
2018-03-17T04:59:58.815Z,11.57
2018-03-17T05:02:25.198Z,12.83
2018-03-17T05:04:51.564Z,12.23
2018-03-17T05:07:17.977Z,13.87
2018-03-17T05:09:44.374Z,16.60
2018-03-17T05:12:10.766Z,14.47
2018-03-17T05:14:37.131Z,15.43
2018-03-17T05:17:03.539Z,18.50
2018-03-17T05:19:29.910Z,21.30
2018-03-17T05:21:56.294Z,19.57
2018-03-17T05:24:22.658Z,20.00
2018-03-17T05:26:49.079Z,19.33
2018-03-17T05:29:15.440Z,20.63
2018-03-17T05:31:41.971Z,27.33
2018-03-17T05:34:08.357Z,20.90
2018-03-17T05:36:34.814Z,27.90
2018-03-17T05:39:01.226Z,31.27
2018-03-17T05:41:27.887Z,31.93
2018-03-17T05:43:54.305Z,34.23
2018-03-17T05:46:20.753Z,30.07
2018-03-17T05:48:47.145Z,31.57
2018-03-17T05:51:13.548Z,35.30
2018-03-17T05:53:39.886Z,39.37
2018-03-17T05:56:06.243Z,37.10
2018-03-17T05:58:32.761Z,33.20
2018-03-17T06:00:59.210Z,33.93
2018-03-17T06:03:25.633Z,27.47
2018-03-17T06:05:51.990Z,29.63
2018-03-17T06:08:18.366Z,29.63
2018-03-17T06:10:44.758Z,27.93
2018-03-17T06:13:11.145Z,31.77
2018-03-17T06:15:37.522Z,30.20
2018-03-17T06:18:03.914Z,28.13
2018-03-17T06:20:30.306Z,27.63
2018-03-17T06:22:56.711Z,30.67
2018-03-17T06:25:23.095Z,25.80
2018-03-17T06:27:49.532Z,25.83
2018-03-17T06:30:15.939Z,32.70
2018-03-17T06:32:42.335Z,27.47
2018-03-17T06:35:08.722Z,26.03
2018-03-17T06:37:35.114Z,25.40
2018-03-17T06:40:01.569Z,29.40
2018-03-17T06:42:28.064Z,30.10
2018-03-17T06:44:54.463Z,39.90
2018-03-17T06:47:21.075Z,47.53
2018-03-17T06:49:47.451Z,37.27
2018-03-17T06:52:13.870Z,45.20
2018-03-17T06:54:40.245Z,47.77
2018-03-17T06:57:06.637Z,32.30
2018-03-17T06:59:33.149Z,32.50
2018-03-17T07:01:59.544Z,40.63
2018-03-17T07:04:26.293Z,35.57
2018-03-17T07:06:52.691Z,36.40
2018-03-17T07:09:19.077Z,33.93
2018-03-17T07:11:45.714Z,37.20
2018-03-17T07:14:12.142Z,46.50
2018-03-17T07:16:38.638Z,40.27
2018-03-17T07:19:05.057Z,47.73
2018-03-17T07:21:31.510Z,42.47
2018-03-17T07:23:57.916Z,39.63
2018-03-17T07:26:24.379Z,42.37
2018-03-17T07:28:50.898Z,39.80
2018-03-17T07:31:17.327Z,51.03
2018-03-17T07:33:43.750Z,48.40
2018-03-17T07:36:10.138Z,42.33
2018-03-17T07:38:36.510Z,48.23
2018-03-17T07:41:02.954Z,38.83
2018-03-17T07:43:29.354Z,43.80
2018-03-17T07:45:55.750Z,40.57
2018-03-17T07:48:22.153Z,37.40
2018-03-17T07:50:48.501Z,43.43
2018-03-17T07:53:14.878Z,45.17
2018-03-17T07:55:41.241Z,52.00
2018-03-17T07:58:07.706Z,34.73
2018-03-17T08:00:34.098Z,20.47
2018-03-17T08:03:00.530Z,17.87
2018-03-17T08:05:26.973Z,15.73
2018-03-17T08:07:53.371Z,15.87
2018-03-17T08:10:19.748Z,11.73
2018-03-17T08:12:46.177Z,10.53
2018-03-17T08:15:12.609Z,11.87
2018-03-17T08:17:38.986Z,16.17
2018-03-17T08:20:05.445Z,10.90
2018-03-17T08:22:32.213Z,15.03
2018-03-17T08:24:58.614Z,18.23
2018-03-17T08:27:25.025Z,11.33
2018-03-17T08:29:51.496Z,13.73
2018-03-17T08:32:17.870Z,12.83
2018-03-17T08:34:44.280Z,14.23
2018-03-17T08:37:10.758Z,10.60
2018-03-17T08:39:37.294Z,10.97
2018-03-17T08:42:03.669Z,13.10
2018-03-17T08:44:30.034Z,16.23
2018-03-17T08:46:56.398Z,13.50
2018-03-17T08:49:23.233Z,12.43
2018-03-17T08:51:49.799Z,13.37
2018-03-17T08:54:16.201Z,11.97
2018-03-17T08:56:42.594Z,15.60
2018-03-17T08:59:09.003Z,14.63
2018-03-17T09:01:35.386Z,14.00
2018-03-17T09:04:01.841Z,10.80
2018-03-17T09:06:28.273Z,9.47
2018-03-17T09:08:54.666Z,17.87
2018-03-17T09:11:21.097Z,13.03
2018-03-17T09:13:47.442Z,11.10
2018-03-17T09:16:13.798Z,12.83
2018-03-17T09:18:40.209Z,13.57
2018-03-17T09:21:06.570Z,15.37
2018-03-17T09:23:32.914Z,7.33
2018-03-17T09:25:59.314Z,11.90
2018-03-17T09:28:25.734Z,14.80
2018-03-17T09:30:52.113Z,11.53
2018-03-17T09:33:18.577Z,13.20
2018-03-17T09:35:44.986Z,15.30
2018-03-17T09:38:11.385Z,13.33
2018-03-17T09:40:37.750Z,13.97
2018-03-17T09:43:04.191Z,10.07
2018-03-17T09:45:30.982Z,15.73
2018-03-17T09:47:57.350Z,14.73
2018-03-17T09:50:23.738Z,11.73
2018-03-17T09:52:50.118Z,12.30
2018-03-17T09:55:16.527Z,9.33
2018-03-17T09:57:42.922Z,10.97
2018-03-17T10:00:09.290Z,13.50
2018-03-17T10:02:35.642Z,16.33
2018-03-17T10:05:02.014Z,16.60
2018-03-17T10:07:28.389Z,12.20
2018-03-17T10:09:54.798Z,16.43
2018-03-17T10:12:21.214Z,12.33
2018-03-17T10:14:47.619Z,13.90
2018-03-17T10:17:14.069Z,13.90
2018-03-17T10:19:40.409Z,13.10
2018-03-17T10:22:06.758Z,14.90
2018-03-17T10:24:33.091Z,10.60
2018-03-17T10:26:59.722Z,20.60
2018-03-17T10:29:26.849Z,12.87
2018-03-17T10:31:53.397Z,12.53
2018-03-17T10:34:19.727Z,12.77
2018-03-17T10:36:46.152Z,17.23
2018-03-17T10:39:12.514Z,16.97
2018-03-17T10:41:38.921Z,13.20
2018-03-17T10:44:05.294Z,11.10
2018-03-17T10:46:31.651Z,12.33
2018-03-17T10:48:58.086Z,13.50
2018-03-17T10:51:24.498Z,16.27
2018-03-17T10:53:50.885Z,13.30
2018-03-17T10:56:17.275Z,14.00
2018-03-17T10:58:43.670Z,14.10
2018-03-17T11:01:16.081Z,13.27
2018-03-17T11:03:42.443Z,14.80
2018-03-17T11:06:08.907Z,17.00
2018-03-17T11:08:35.406Z,11.33
2018-03-17T11:11:01.802Z,18.07
2018-03-17T11:13:28.171Z,11.13
2018-03-17T11:15:54.558Z,15.50
2018-03-17T11:18:20.888Z,18.57
2018-03-17T11:20:47.277Z,21.60
2018-03-17T11:23:13.665Z,15.67
2018-03-17T11:25:40.043Z,10.60
2018-03-17T11:28:06.438Z,17.17
2018-03-17T11:30:33.014Z,31.00
2018-03-17T11:32:59.469Z,16.00
2018-03-17T11:35:25.885Z,18.83
2018-03-17T11:37:52.244Z,19.17
2018-03-17T11:40:18.622Z,16.87
2018-03-17T11:42:45.053Z,19.77
2018-03-17T11:45:11.414Z,21.70
2018-03-17T11:47:37.758Z,15.47
2018-03-17T11:50:04.119Z,13.80
2018-03-17T11:52:30.586Z,14.53
2018-03-17T11:54:56.993Z,15.07
2018-03-17T11:57:23.350Z,17.40
2018-03-17T11:59:49.694Z,11.80
2018-03-17T12:02:16.138Z,11.83
2018-03-17T12:04:42.486Z,15.87
2018-03-17T12:07:08.914Z,18.87
2018-03-17T12:09:35.354Z,14.77
2018-03-17T12:12:01.710Z,13.70
2018-03-17T12:14:28.091Z,18.73
2018-03-17T12:16:54.487Z,17.10
2018-03-17T12:19:20.850Z,12.30
2018-03-17T12:21:47.217Z,20.43
2018-03-17T12:24:13.573Z,16.10
2018-03-17T12:26:39.982Z,15.50
2018-03-17T12:29:06.459Z,16.17
2018-03-17T12:31:32.778Z,21.53
2018-03-17T12:33:59.210Z,15.33
2018-03-17T12:36:25.595Z,18.00
2018-03-17T12:38:51.941Z,13.67
2018-03-17T12:41:18.962Z,19.30
2018-03-17T12:43:45.394Z,13.00
2018-03-17T12:46:11.822Z,16.57
2018-03-17T12:48:38.234Z,13.20
2018-03-17T12:51:04.695Z,11.93
2018-03-17T12:53:31.077Z,16.53
2018-03-17T12:55:57.558Z,11.43
2018-03-17T12:58:24.147Z,20.30
2018-03-17T13:00:50.594Z,13.47
2018-03-17T13:03:16.955Z,13.87
2018-03-17T13:05:43.346Z,14.60
2018-03-17T13:08:09.700Z,14.47
2018-03-17T13:10:36.196Z,20.57
2018-03-17T13:13:02.589Z,15.97
2018-03-17T13:15:28.959Z,17.73
2018-03-17T13:17:55.327Z,14.87
2018-03-17T13:20:21.699Z,14.13
2018-03-17T13:23:00.356Z,11.03
2018-03-17T13:25:26.854Z,15.57
2018-03-17T13:28:05.372Z,10.80
2018-03-17T13:30:31.654Z,13.10
2018-03-17T13:32:58.310Z,16.77
2018-03-17T13:35:36.797Z,17.63
2018-03-17T13:38:03.146Z,13.80
2018-03-17T13:40:31.481Z,20.07
2018-03-17T13:42:57.873Z,13.60
2018-03-17T13:45:24.230Z,11.67
2018-03-17T13:47:50.582Z,11.93
2018-03-17T13:50:17.244Z,14.60
2018-03-17T13:52:43.631Z,17.20
2018-03-17T13:55:09.975Z,19.10
2018-03-17T13:57:36.382Z,16.87
2018-03-17T14:00:02.815Z,12.00
2018-03-17T14:02:29.270Z,12.47
2018-03-17T14:04:55.659Z,10.90
2018-03-17T14:07:22.001Z,19.03
2018-03-17T14:09:48.330Z,13.47
2018-03-17T14:12:14.768Z,11.13
2018-03-17T14:14:41.118Z,9.40
2018-03-17T14:17:07.603Z,14.80
2018-03-17T14:19:33.974Z,10.43
2018-03-17T14:22:00.325Z,14.83
2018-03-17T14:24:26.998Z,13.00
2018-03-17T14:26:53.342Z,16.47
2018-03-17T14:29:19.721Z,14.27
2018-03-17T14:31:46.046Z,18.93
2018-03-17T14:34:12.425Z,14.70
2018-03-17T14:36:38.790Z,18.03
2018-03-17T14:39:05.230Z,14.97
2018-03-17T14:41:31.598Z,20.47
2018-03-17T14:43:57.940Z,14.00
2018-03-17T14:46:24.298Z,11.10
2018-03-17T14:48:50.677Z,13.60
2018-03-17T14:51:17.036Z,15.13
2018-03-17T14:53:43.509Z,17.33
2018-03-17T14:56:09.874Z,18.87
2018-03-17T14:58:36.310Z,12.87
2018-03-17T15:01:02.687Z,18.20
2018-03-17T15:03:29.065Z,13.73
2018-03-17T15:05:55.489Z,15.80
2018-03-17T15:08:21.909Z,16.37
2018-03-17T15:10:48.314Z,16.77
2018-03-17T15:13:14.691Z,14.73
2018-03-17T15:15:41.021Z,19.63
2018-03-17T15:18:07.370Z,19.93
2018-03-17T15:20:33.717Z,17.13
2018-03-17T15:23:00.050Z,14.00
2018-03-17T15:25:26.445Z,13.40
2018-03-17T15:27:52.853Z,26.00
2018-03-17T15:30:19.304Z,12.57
2018-03-17T15:32:45.660Z,11.57
2018-03-17T15:35:12.079Z,17.60
2018-03-17T15:37:38.441Z,10.93
2018-03-17T15:40:04.820Z,14.97
2018-03-17T15:42:31.153Z,15.73
2018-03-17T15:44:57.494Z,15.37
2018-03-17T15:47:23.945Z,16.70
2018-03-17T15:49:50.322Z,16.23
2018-03-17T15:52:16.662Z,18.30
2018-03-17T15:54:43.105Z,16.73
2018-03-17T15:57:09.440Z,17.73
2018-03-17T15:59:35.802Z,17.13
2018-03-17T16:02:03.030Z,17.13
2018-03-17T16:04:29.370Z,20.77
2018-03-17T16:06:55.704Z,15.57
2018-03-17T16:09:22.187Z,22.30
2018-03-17T16:11:48.534Z,13.63
2018-03-17T16:14:14.911Z,16.80
2018-03-17T16:16:41.398Z,18.70
2018-03-17T16:19:10.316Z,18.50
2018-03-17T16:21:36.930Z,24.70
2018-03-17T16:24:03.350Z,14.17
2018-03-17T16:26:29.836Z,14.93
2018-03-17T16:28:56.389Z,14.07
2018-03-17T16:31:23.514Z,20.97
2018-03-17T16:33:49.881Z,16.83
2018-03-17T16:36:16.249Z,14.33
2018-03-17T16:38:42.601Z,16.63
2018-03-17T16:41:09.078Z,19.37
2018-03-17T16:43:35.454Z,13.40
2018-03-17T16:46:01.850Z,18.30
2018-03-17T16:48:28.215Z,19.87
2018-03-17T16:50:54.636Z,20.50
2018-03-17T16:53:21.042Z,14.60
2018-03-17T16:55:47.430Z,20.37
2018-03-17T16:58:13.769Z,16.53
2018-03-17T17:00:40.246Z,18.50
2018-03-17T17:03:06.758Z,16.90
2018-03-17T17:05:33.115Z,27.80
2018-03-17T17:07:59.754Z,20.73
2018-03-17T17:10:26.282Z,18.67
2018-03-17T17:12:52.679Z,19.97
2018-03-17T17:15:19.062Z,18.10
2018-03-17T17:17:45.499Z,19.10
2018-03-17T17:20:12.029Z,19.70
2018-03-17T17:22:38.424Z,15.83
2018-03-17T17:25:04.994Z,19.10
2018-03-17T17:27:31.454Z,23.23
2018-03-17T17:29:57.967Z,32.30
2018-03-17T17:32:24.382Z,18.63
2018-03-17T17:34:50.725Z,20.10
2018-03-17T17:37:17.086Z,21.77
2018-03-17T17:39:43.449Z,19.27
2018-03-17T17:42:09.844Z,23.50
2018-03-17T17:44:36.345Z,15.83
2018-03-17T17:47:02.718Z,18.93
2018-03-17T17:49:29.107Z,24.50
2018-03-17T17:51:55.490Z,60.27
2018-03-17T17:54:22.036Z,101.50
2018-03-17T17:56:48.377Z,125.30
2018-03-17T17:59:14.777Z,41.33
2018-03-17T18:01:41.164Z,31.20
2018-03-17T18:04:16.257Z,26.13
2018-03-17T18:06:47.530Z,22.93
2018-03-17T18:09:13.878Z,21.57
2018-03-17T18:11:40.262Z,18.30
2018-03-17T18:14:06.610Z,20.00
2018-03-17T18:16:32.982Z,23.23
2018-03-17T18:18:59.464Z,18.47
2018-03-17T18:21:25.915Z,13.40
2018-03-17T18:23:52.406Z,18.43
2018-03-17T18:26:18.790Z,17.97
2018-03-17T18:28:45.151Z,14.17
2018-03-17T18:31:11.520Z,20.97
2018-03-17T18:33:37.939Z,18.37
2018-03-17T18:36:04.334Z,18.70
2018-03-17T18:38:30.749Z,12.67
2018-03-17T18:40:57.230Z,18.20
2018-03-17T18:43:23.629Z,21.73
2018-03-17T18:45:50.211Z,14.67
2018-03-17T18:48:16.652Z,19.30
2018-03-17T18:50:43.058Z,16.37
2018-03-17T18:53:09.428Z,21.97
2018-03-17T18:55:35.786Z,16.70
2018-03-17T18:58:02.258Z,20.87
2018-03-17T19:00:28.641Z,22.60
2018-03-17T19:02:54.976Z,19.93
2018-03-17T19:05:21.350Z,21.83
2018-03-17T19:07:47.724Z,23.10
2018-03-17T19:10:14.085Z,18.93
2018-03-17T19:12:40.478Z,23.03
2018-03-17T19:15:06.831Z,20.80
2018-03-17T19:17:33.254Z,21.13
2018-03-17T19:19:59.603Z,18.97
2018-03-17T19:22:26.008Z,16.93
2018-03-17T19:24:52.389Z,19.83
2018-03-17T19:27:18.726Z,20.53
2018-03-17T19:29:45.091Z,16.40
2018-03-17T19:32:11.442Z,21.67
2018-03-17T19:34:37.782Z,20.20
2018-03-17T19:37:06.119Z,18.27
2018-03-17T19:39:32.543Z,15.50
2018-03-17T19:41:58.914Z,14.97
2018-03-17T19:44:25.591Z,19.33
2018-03-17T19:46:53.059Z,16.10
2018-03-17T19:49:20.603Z,16.23
2018-03-17T19:51:47.882Z,19.40
2018-03-17T19:54:14.250Z,19.67
2018-03-17T19:56:40.642Z,23.77
2018-03-17T19:59:07.120Z,23.57
2018-03-17T20:01:33.510Z,23.37
2018-03-17T20:03:59.846Z,18.93
2018-03-17T20:06:26.214Z,22.60
2018-03-17T20:08:52.598Z,25.30
2018-03-17T20:11:19.042Z,23.73
2018-03-17T20:13:45.434Z,23.07
2018-03-17T20:16:11.778Z,21.63
2018-03-17T20:18:38.143Z,19.27
2018-03-17T20:21:04.571Z,18.73
2018-03-17T20:23:30.914Z,25.93
2018-03-17T20:25:57.270Z,23.43
2018-03-17T20:28:23.610Z,19.70
2018-03-17T20:30:49.966Z,20.57
2018-03-17T20:33:16.285Z,19.17
2018-03-17T20:35:42.618Z,21.70
2018-03-17T20:38:08.959Z,24.20
2018-03-17T20:40:35.319Z,18.93
2018-03-17T20:43:01.712Z,20.03
2018-03-17T20:45:28.207Z,20.33
2018-03-17T20:47:54.627Z,20.77
2018-03-17T20:50:20.966Z,18.23
2018-03-17T20:52:47.382Z,16.77
2018-03-17T20:55:13.718Z,23.03
2018-03-17T20:57:40.097Z,18.47
2018-03-17T21:00:06.502Z,22.40
2018-03-17T21:02:32.870Z,18.00
2018-03-17T21:04:59.243Z,19.07
2018-03-17T21:07:25.634Z,17.27
2018-03-17T21:09:52.052Z,25.70
2018-03-17T21:12:18.403Z,18.67
2018-03-17T21:14:44.791Z,24.43
2018-03-17T21:17:11.147Z,21.37
2018-03-17T21:19:37.496Z,20.17
2018-03-17T21:22:03.885Z,22.97
2018-03-17T21:24:30.238Z,21.83
2018-03-17T21:26:56.619Z,21.37
2018-03-17T21:29:23.025Z,26.13
2018-03-17T21:31:49.435Z,20.33
2018-03-17T21:34:15.793Z,21.87
2018-03-17T21:36:42.126Z,27.13
2018-03-17T21:39:08.491Z,25.83
2018-03-17T21:41:34.842Z,25.43
2018-03-17T21:44:01.252Z,28.17
2018-03-17T21:46:27.598Z,25.63
2018-03-17T21:48:54.242Z,19.53
2018-03-17T21:51:20.666Z,25.00
2018-03-17T21:53:47.033Z,24.57
2018-03-17T21:56:13.386Z,18.80
2018-03-17T21:58:39.743Z,22.27
2018-03-17T22:01:06.114Z,94.87
2018-03-17T22:03:32.477Z,29.40
2018-03-17T22:05:58.930Z,21.70
2018-03-17T22:08:25.286Z,16.67
2018-03-17T22:10:51.675Z,26.33
2018-03-17T22:13:18.090Z,15.63
2018-03-17T22:15:44.462Z,18.20
2018-03-17T22:18:10.810Z,18.17
2018-03-17T22:20:37.190Z,20.13
2018-03-17T22:23:03.594Z,16.50
2018-03-17T22:25:29.918Z,23.63
2018-03-17T22:27:56.279Z,18.00
2018-03-17T22:30:22.642Z,18.33
2018-03-17T22:32:48.998Z,18.77
2018-03-17T22:35:15.333Z,20.50
2018-03-17T22:37:41.693Z,21.23
2018-03-17T22:40:08.122Z,19.87
2018-03-17T22:42:34.513Z,18.83
2018-03-17T22:45:00.863Z,24.17
2018-03-17T22:47:27.313Z,20.73
2018-03-17T22:49:53.647Z,19.83
2018-03-17T22:52:20.035Z,17.37
2018-03-17T22:54:46.386Z,22.03
2018-03-17T22:57:12.744Z,26.17
2018-03-17T22:59:39.089Z,22.20
2018-03-17T23:02:05.502Z,20.67
2018-03-17T23:04:31.854Z,22.77
2018-03-17T23:06:58.198Z,23.23
2018-03-17T23:09:24.554Z,22.37
2018-03-17T23:11:50.950Z,21.93
2018-03-17T23:14:17.321Z,19.83
2018-03-17T23:16:43.650Z,25.30
2018-03-17T23:19:10.126Z,22.07
2018-03-17T23:21:36.462Z,16.87
2018-03-17T23:24:02.882Z,19.83
2018-03-17T23:26:29.226Z,16.73
2018-03-17T23:28:55.678Z,22.23
2018-03-17T23:31:22.067Z,17.00
2018-03-17T23:33:48.445Z,20.40
2018-03-17T23:36:14.841Z,19.87
2018-03-17T23:38:41.238Z,18.47
2018-03-17T23:41:07.614Z,24.57
2018-03-17T23:43:34.026Z,23.23
2018-03-17T23:46:00.427Z,17.80
2018-03-17T23:48:26.841Z,17.27
2018-03-17T23:50:53.315Z,22.10
2018-03-17T23:53:19.710Z,20.00
2018-03-17T23:55:46.101Z,21.50
2018-03-17T23:58:12.535Z,20.83
